Time;durP1;ratioP1;P1;durP2;ratioP2;P2;SDS_P1;SDS_P2;PMS_P1;PMS_P2;Temp;Humidity;BMP_temperature;BMP_pressure;BME280_temperature;BME280_humidity;BME280_pressure;Samples;Min_cycle;Max_cycle;Signal;HPM_P1;HPM_P2
2022/04/29 00:00:16;;;;;;;17.38;10.55;;;;;;;11.80;63.40;101526.44;5033317;28;20135;-72
2022/04/29 00:02:43;;;;;;;16.02;10.90;;;;;;;11.60;63.60;101496.09;5044353;28;20654;-74
2022/04/29 00:05:10;;;;;;;18.55;10.45;;;;;;;11.75;63.71;101528.34;5034407;28;20151;-73
2022/04/29 00:07:39;;;;;;;14.85;9.90;;;;;;;11.63;63.89;101505.75;5047067;28;20041;-69
2022/04/29 00:10:07;;;;;;;16.98;10.55;;;;;;;11.76;63.48;101517.72;5044782;28;20049;-72
2022/04/29 00:12:34;;;;;;;16.60;10.70;;;;;;;11.72;64.06;101526.66;5046198;28;20131;-71
2022/04/29 00:15:01;;;;;;;16.70;11.00;;;;;;;11.42;63.94;101486.09;5041097;28;20045;-74
2022/04/29 00:17:27;;;;;;;19.55;10.70;;;;;;;11.53;64.21;101510.47;5041753;28;20128;-66
2022/04/29 00:19:54;;;;;;;16.98;10.35;;;;;;;11.61;64.56;101520.84;5047716;28;20382;-69
2022/04/29 00:22:21;;;;;;;16.55;10.48;;;;;;;11.62;64.58;101519.06;5041045;28;20537;-69
2022/04/29 00:24:48;;;;;;;14.65;10.52;;;;;;;11.40;64.61;101493.25;5045159;28;20053;-68
2022/04/29 00:27:14;;;;;;;15.30;10.07;;;;;;;11.60;64.58;101527.94;5041832;28;20066;-72
2022/04/29 00:29:41;;;;;;;15.20;10.40;;;;;;;11.58;64.39;101532.41;5045674;28;20080;-72
2022/04/29 00:32:08;;;;;;;13.85;10.43;;;;;;;11.54;64.84;101528.13;5040023;28;20103;-68
2022/04/29 00:34:34;;;;;;;15.88;10.38;;;;;;;11.47;65.24;101525.75;5041012;28;20041;-72
2022/04/29 00:37:01;;;;;;;16.30;10.77;;;;;;;11.44;65.56;101517.88;5028556;28;20042;-68
2022/04/29 00:39:28;;;;;;;20.42;11.70;;;;;;;11.46;65.24;101519.56;5041170;28;20464;-68
2022/04/29 00:41:55;;;;;;;13.90;10.70;;;;;;;11.44;65.63;101516.09;5035150;28;20076;-68
2022/04/29 00:44:22;;;;;;;18.23;11.25;;;;;;;11.35;65.34;101495.16;5046055;28;20067;-69
2022/04/29 00:46:50;;;;;;;14.13;10.90;;;;;;;11.45;65.29;101517.84;5041235;28;20154;-68
2022/04/29 00:49:18;;;;;;;16.60;10.75;;;;;;;11.34;65.70;101504.03;5043746;28;20139;-69
2022/04/29 00:51:49;;;;;;;17.52;11.43;;;;;;;11.38;65.41;101510.97;5035048;28;20180;-67
2022/04/29 00:54:24;;;;;;;18.88;10.85;;;;;;;11.29;66.38;101498.03;5036091;28;20049;-69
2022/04/29 00:56:53;;;;;;;18.38;11.80;;;;;;;11.41;65.77;101510.88;5033545;28;20047;-71
2022/04/29 00:59:26;;;;;;;15.73;11.18;;;;;;;11.23;65.82;101479.66;5035787;28;20044;-70
2022/04/29 01:01:55;;;;;;;16.95;11.73;;;;;;;11.33;65.98;101501.47;5037499;28;20164;-68
2022/04/29 01:04:27;;;;;;;16.13;11.07;;;;;;;11.33;66.19;101504.97;5036827;28;20052;-71
2022/04/29 01:06:53;;;;;;;17.05;11.45;;;;;;;11.24;66.81;101508.78;5044927;28;20057;-71
2022/04/29 01:09:22;;;;;;;19.63;11.52;;;;;;;11.24;67.12;101502.59;5036672;28;20752;-71
2022/04/29 01:11:50;;;;;;;19.90;11.05;;;;;;;11.18;67.04;101503.66;5041433;28;20127;-70
2022/04/29 01:14:17;;;;;;;16.42;11.68;;;;;;;11.19;67.02;101501.88;5039538;28;20081;-70
2022/04/29 01:16:44;;;;;;;18.65;11.98;;;;;;;10.97;67.34;101474.31;5038956;28;20055;-69
2022/04/29 01:19:10;;;;;;;15.95;11.90;;;;;;;11.09;67.34;101492.50;5030930;28;20617;-70
2022/04/29 01:21:37;;;;;;;17.42;11.57;;;;;;;11.08;67.68;101506.66;5016373;28;20045;-70
2022/04/29 01:24:04;;;;;;;23.83;11.70;;;;;;;10.90;67.81;101465.69;5027229;28;20060;-67
2022/04/29 01:26:31;;;;;;;17.98;11.82;;;;;;;11.04;67.81;101494.41;5039352;28;20125;-72
2022/04/29 01:28:58;;;;;;;16.42;11.68;;;;;;;10.94;68.23;101483.25;5041518;28;20060;-68
2022/04/29 01:31:24;;;;;;;15.52;11.35;;;;;;;10.97;68.37;101490.22;5038860;28;20053;-67
2022/04/29 01:33:53;;;;;;;23.42;12.63;;;;;;;10.90;68.45;101471.84;5032962;28;20053;-67
2022/04/29 01:36:19;;;;;;;16.63;11.63;;;;;;;10.92;68.68;101490.38;5034952;28;20624;-72
2022/04/29 01:38:46;;;;;;;14.73;11.30;;;;;;;10.86;68.64;101475.50;5038554;28;20072;-70
2022/04/29 01:41:13;;;;;;;18.92;12.70;;;;;;;10.88;68.46;101478.97;5035594;28;20124;-68
2022/04/29 01:43:40;;;;;;;18.45;12.27;;;;;;;10.87;69.10;101471.09;5034136;28;20076;-67
2022/04/29 01:46:06;;;;;;;20.25;12.80;;;;;;;10.83;69.35;101475.63;5027329;28;20053;-80
2022/04/29 01:48:33;;;;;;;18.25;12.00;;;;;;;10.77;69.25;101483.75;5045225;28;20124;-69
2022/04/29 01:51:05;;;;;;;18.65;13.07;;;;;;;10.70;69.87;101476.06;5034814;28;20196;-70
2022/04/29 01:53:33;;;;;;;18.52;12.73;;;;;;;10.61;69.57;101466.59;5034157;28;20136;-69
2022/04/29 01:55:59;;;;;;;20.90;12.73;;;;;;;10.68;69.86;101486.69;5030177;28;20108;-70
2022/04/29 01:58:26;;;;;;;18.23;12.25;;;;;;;10.66;70.08;101491.16;5028614;28;20284;-68
2022/04/29 02:00:52;;;;;;;19.58;13.10;;;;;;;10.58;71.04;101485.22;5034804;28;20115;-70
2022/04/29 02:03:19;;;;;;;20.20;12.70;;;;;;;10.56;71.24;101492.34;5036114;28;20254;-72
2022/04/29 02:05:47;;;;;;;22.85;13.73;;;;;;;10.52;71.19;101482.78;5040559;28;20470;-70
2022/04/29 02:08:14;;;;;;;19.52;12.32;;;;;;;10.45;71.50;101476.78;5032624;28;20489;-71
2022/04/29 02:10:40;;;;;;;17.67;13.05;;;;;;;10.39;71.77;101468.16;5036099;28;20536;-72
2022/04/29 02:13:07;;;;;;;20.63;13.18;;;;;;;10.30;72.29;101458.69;5039920;28;20114;-73
2022/04/29 02:15:33;;;;;;;17.77;12.70;;;;;;;10.28;72.50;101460.50;5035478;28;20445;-68
2022/04/29 02:18:00;;;;;;;19.48;12.60;;;;;;;10.31;72.82;101478.09;5046409;28;20154;-69
2022/04/29 02:20:27;;;;;;;19.70;12.70;;;;;;;10.15;73.23;101452.00;5033897;28;20528;-70
2022/04/29 02:22:53;;;;;;;19.00;12.93;;;;;;;10.24;73.34;101477.38;5031687;28;20720;-70
2022/04/29 02:25:20;;;;;;;18.38;12.65;;;;;;;10.21;73.40;101466.03;5038187;28;20080;-67
2022/04/29 02:27:47;;;;;;;19.98;13.18;;;;;;;10.19;73.54;101468.72;5038664;28;20081;-69
2022/04/29 02:30:13;;;;;;;17.58;12.00;;;;;;;10.22;73.79;101467.78;5025424;28;20133;-72
2022/04/29 02:32:41;;;;;;;20.48;12.98;;;;;;;10.17;73.70;101471.38;5043910;28;20110;-68
2022/04/29 02:35:09;;;;;;;21.08;14.20;;;;;;;10.02;73.71;101447.97;5044113;28;20131;-71
2022/04/29 02:37:36;;;;;;;17.05;12.40;;;;;;;10.05;73.86;101466.44;5032584;28;20100;-71
2022/04/29 02:40:03;;;;;;;19.63;13.23;;;;;;;10.07;74.26;101471.69;5022748;28;20144;-67
2022/04/29 02:42:30;;;;;;;22.50;14.32;;;;;;;10.07;74.53;101467.22;5032855;28;20045;-67
2022/04/29 02:44:56;;;;;;;18.77;13.85;;;;;;;10.03;74.69;101449.72;5036866;28;20081;-71
2022/04/29 02:47:23;;;;;;;19.88;13.38;;;;;;;9.94;74.86;101438.50;5039287;28;20152;-70
2022/04/29 02:49:50;;;;;;;19.15;13.60;;;;;;;9.93;74.71;101444.72;5034712;28;20156;-73
2022/04/29 02:52:17;;;;;;;21.25;13.80;;;;;;;10.05;74.77;101462.91;5037188;28;20135;-68
2022/04/29 02:54:44;;;;;;;23.35;13.13;;;;;;;9.97;74.92;101449.88;5045971;28;20531;-69
2022/04/29 02:57:11;;;;;;;18.38;13.45;;;;;;;10.02;75.28;101465.63;5039990;28;20072;-68
2022/04/29 02:59:37;;;;;;;19.75;12.77;;;;;;;9.99;75.04;101450.72;5038907;28;20087;-68
2022/04/29 03:02:05;;;;;;;21.85;13.13;;;;;;;10.05;75.02;101463.78;5043146;28;20041;-74
2022/04/29 03:04:32;;;;;;;18.98;14.00;;;;;;;10.01;75.09;101462.13;5041264;28;20040;-70
2022/04/29 03:06:58;;;;;;;19.70;13.68;;;;;;;9.96;75.49;101464.00;5035177;28;20080;-67
2022/04/29 03:09:25;;;;;;;22.88;13.73;;;;;;;9.92;75.71;101457.06;5039889;28;20064;-71
2022/04/29 03:11:52;;;;;;;21.08;13.15;;;;;;;9.83;76.00;101441.47;5037628;28;20040;-69
2022/04/29 03:14:18;;;;;;;21.08;12.23;;;;;;;9.92;75.91;101450.91;5039077;28;20103;-69
2022/04/29 03:16:49;;;;;;;20.02;13.65;;;;;;;9.91;75.72;101457.13;5046360;28;20053;-70
2022/04/29 03:19:17;;;;;;;19.52;13.00;;;;;;;9.86;75.76;101438.72;5041590;28;20040;-70
2022/04/29 03:21:44;;;;;;;21.48;13.13;;;;;;;9.97;76.01;101449.88;5043228;28;20057;-73
2022/04/29 03:24:11;;;;;;;19.30;13.35;;;;;;;9.97;75.23;101444.59;5040040;28;20041;-70
2022/04/29 03:26:37;;;;;;;26.13;13.20;;;;;;;9.91;75.13;101449.19;5041282;28;20057;-67
2022/04/29 03:29:04;;;;;;;16.95;12.70;;;;;;;9.86;75.46;101454.59;5033424;28;20125;-71
2022/04/29 03:31:31;;;;;;;20.10;13.05;;;;;;;9.80;76.16;101452.97;5045635;28;20549;-69
2022/04/29 03:33:58;;;;;;;18.98;12.60;;;;;;;9.76;76.36;101450.44;5040208;28;20053;-68
2022/04/29 03:36:27;;;;;;;24.38;13.70;;;;;;;9.73;76.58;101451.44;5038461;28;20095;-73
2022/04/29 03:38:54;;;;;;;23.63;14.13;;;;;;;9.66;77.00;101443.69;5042680;28;20057;-66
2022/04/29 03:41:21;;;;;;;23.27;14.07;;;;;;;9.67;77.06;101445.41;5042077;28;20053;-69
2022/04/29 03:43:48;;;;;;;21.15;14.00;;;;;;;9.62;76.99;101447.31;5034646;28;20116;-67
2022/04/29 03:46:15;;;;;;;20.95;13.77;;;;;;;9.63;77.27;101441.97;5043036;28;20053;-70
2022/04/29 03:51:27;;;;;;;23.52;13.55;;;;;;;9.49;77.09;101431.78;5032995;28;20460;-73
2022/04/29 03:53:54;;;;;;;18.83;13.02;;;;;;;9.58;76.97;101450.97;5035873;28;20045;-68
2022/04/29 03:56:20;;;;;;;22.17;13.95;;;;;;;9.52;76.77;101446.69;5043833;28;20509;-68
2022/04/29 03:58:47;;;;;;;18.90;12.65;;;;;;;9.49;77.12;101447.63;5031989;28;20135;-70
2022/04/29 04:01:14;;;;;;;20.23;13.38;;;;;;;9.45;76.96;101435.41;5045101;28;20145;-71
2022/04/29 04:03:41;;;;;;;24.33;13.80;;;;;;;9.45;77.17;101450.38;5042165;28;20151;-72
2022/04/29 04:08:53;;;;;;;22.17;13.02;;;;;;;9.29;77.65;101434.03;5035974;28;20049;-70
2022/04/29 04:11:19;;;;;;;21.73;13.45;;;;;;;9.40;77.36;101453.16;5036113;28;20053;-69
2022/04/29 04:13:46;;;;;;;16.77;11.85;;;;;;;9.32;77.58;101443.69;5043507;28;20057;-68
2022/04/29 04:16:12;;;;;;;18.88;12.63;;;;;;;9.40;77.71;101461.09;5035365;28;20084;-74
2022/04/29 04:18:39;;;;;;;18.60;12.55;;;;;;;9.41;77.54;101459.31;5038396;28;20382;-69
2022/04/29 04:21:06;;;;;;;19.85;13.15;;;;;;;9.28;77.83;101429.69;5040715;28;20103;-67
2022/04/29 04:23:33;;;;;;;22.63;13.32;;;;;;;9.47;77.79;101460.03;5022551;28;20055;-72
2022/04/29 04:25:59;;;;;;;20.48;13.48;;;;;;;9.52;77.90;101464.34;5039531;28;20708;-67
2022/04/29 04:28:27;;;;;;;22.35;13.88;;;;;;;9.56;78.00;101460.72;5039010;28;21528;-67
2022/04/29 04:30:53;;;;;;;18.38;12.82;;;;;;;9.59;77.31;101458.00;5034363;28;20476;-72
2022/04/29 04:33:20;;;;;;;25.83;13.60;;;;;;;9.65;77.24;101463.97;5041280;28;20052;-70
2022/04/29 04:35:47;;;;;;;19.83;13.15;;;;;;;9.66;76.32;101459.56;5044467;28;20536;-68
2022/04/29 04:38:14;;;;;;;19.70;12.65;;;;;;;9.73;76.86;101462.00;5041260;28;20057;-69
2022/04/29 04:40:42;;;;;;;22.20;12.90;;;;;;;9.76;76.14;101461.03;5042345;28;20503;-67
2022/04/29 04:43:15;;;;;;;22.42;13.77;;;;;;;9.80;75.76;101462.69;5044019;28;20127;-70
2022/04/29 04:45:42;;;;;;;23.13;13.35;;;;;;;9.86;75.43;101467.84;5042682;28;20137;-67
2022/04/29 04:48:09;;;;;;;19.50;13.73;;;;;;;9.80;75.35;101446.81;5041992;28;20041;-72
2022/04/29 04:50:35;;;;;;;17.70;12.85;;;;;;;9.97;74.73;101452.53;5032174;28;20124;-68
2022/04/29 04:53:02;;;;;;;16.20;12.10;;;;;;;10.11;74.14;101463.59;5043521;28;20106;-67
2022/04/29 04:55:29;;;;;;;20.60;11.98;;;;;;;10.14;73.90;101458.22;5039307;28;20072;-70
2022/04/29 04:57:55;;;;;;;17.65;11.90;;;;;;;10.10;74.03;101443.31;5016069;28;20049;-68
2022/04/29 05:00:22;;;;;;;19.90;12.57;;;;;;;10.33;73.82;101469.19;5045765;28;20087;-67
2022/04/29 05:02:49;;;;;;;17.63;12.52;;;;;;;10.41;73.47;101461.00;5039877;28;20064;-68
2022/04/29 05:05:15;;;;;;;18.50;12.00;;;;;;;10.57;72.83;101472.00;5019496;28;20563;-70
2022/04/29 05:07:42;;;;;;;17.23;11.73;;;;;;;10.65;72.39;101467.38;5043611;28;20118;-69
2022/04/29 05:10:10;;;;;;;18.20;12.77;;;;;;;10.79;71.54;101476.63;5038946;28;20125;-70
2022/04/29 05:12:45;;;;;;;20.15;12.57;;;;;;;10.93;71.31;101476.19;5035332;28;20060;-70
2022/04/29 05:15:13;;;;;;;18.88;11.73;;;;;;;10.88;70.07;101446.31;5039007;28;20517;-70
2022/04/29 05:17:40;;;;;;;18.70;11.68;;;;;;;11.15;70.10;101479.06;5033346;28;20111;-70
2022/04/29 05:20:09;;;;;;;18.48;12.55;;;;;;;11.26;69.63;101479.56;5041437;28;20329;-70
2022/04/29 05:22:36;;;;;;;18.67;12.10;;;;;;;11.39;68.23;101483.53;5042049;28;20133;-66
2022/04/29 05:25:05;;;;;;;16.92;12.02;;;;;;;11.49;68.18;101487.63;5048652;28;20049;-71
2022/04/29 05:27:32;;;;;;;17.35;11.68;;;;;;;11.58;67.32;101487.31;5034217;28;20068;-68
2022/04/29 05:30:00;;;;;;;17.60;11.57;;;;;;;11.68;66.43;101493.16;5043137;28;20175;-69
2022/04/29 05:32:35;;;;;;;17.65;11.68;;;;;;;11.79;66.26;101495.50;5039396;28;20056;-67
2022/04/29 05:35:04;;;;;;;16.42;11.13;;;;;;;11.78;65.97;101480.50;5038565;28;20072;-68
2022/04/29 05:37:31;;;;;;;21.05;11.70;;;;;;;11.91;66.15;101492.44;5042314;28;20434;-73
2022/04/29 05:42:43;;;;;;;16.73;11.75;;;;;;;12.02;64.24;101494.69;5042870;28;20136;-71
2022/04/29 05:45:10;;;;;;;19.73;11.90;;;;;;;12.04;64.08;101491.06;5037161;28;20140;-72
2022/04/29 05:47:36;;;;;;;14.85;11.13;;;;;;;12.07;64.63;101484.78;5044144;28;20041;-70
2022/04/29 05:50:04;;;;;;;18.63;11.55;;;;;;;12.16;63.20;101487.09;5040171;28;20049;-68
2022/04/29 05:52:31;;;;;;;19.08;11.68;;;;;;;12.15;63.48;101486.22;5037128;28;20436;-67
2022/04/29 05:54:58;;;;;;;15.68;11.77;;;;;;;12.22;63.10;101487.75;5042407;28;20045;-71
2022/04/29 05:57:24;;;;;;;17.13;11.48;;;;;;;12.27;62.76;101479.63;5039495;28;20559;-71
2022/04/29 05:59:51;;;;;;;18.52;12.40;;;;;;;12.21;62.38;101464.78;5037578;28;20526;-69
2022/04/29 06:02:18;;;;;;;16.80;11.43;;;;;;;12.32;62.17;101484.75;5038137;28;20044;-71
2022/04/29 06:04:45;;;;;;;18.73;12.32;;;;;;;12.21;62.40;101486.03;5045633;28;20053;-71
2022/04/29 06:07:11;;;;;;;20.65;11.35;;;;;;;12.12;63.32;101483.69;5035344;28;20048;-67
2022/04/29 06:09:38;;;;;;;19.13;11.15;;;;;;;12.16;63.09;101479.13;5035207;28;20081;-69
2022/04/29 06:12:05;;;;;;;18.65;12.05;;;;;;;12.07;63.12;101493.63;5037591;28;20666;-70
2022/04/29 06:14:33;;;;;;;22.38;11.88;;;;;;;12.01;63.76;101483.22;5045293;28;20374;-68
2022/04/29 06:17:00;;;;;;;20.77;12.30;;;;;;;11.97;64.08;101486.00;5034088;28;20681;-69
2022/04/29 06:19:27;;;;;;;19.38;12.23;;;;;;;11.88;64.31;101473.94;5043770;28;20057;-69
2022/04/29 06:21:54;;;;;;;21.17;12.52;;;;;;;11.82;64.54;101466.19;5033391;28;20136;-68
2022/04/29 06:24:22;;;;;;;19.73;12.45;;;;;;;11.98;63.82;101483.31;5041257;28;20049;-70
2022/04/29 06:26:49;;;;;;;16.88;12.55;;;;;;;11.94;64.60;101485.22;5048265;28;20119;-69
2022/04/29 06:29:16;;;;;;;17.77;12.00;;;;;;;11.94;64.98;101484.38;5043428;28;20057;-68
2022/04/29 06:31:43;;;;;;;22.23;12.88;;;;;;;11.97;64.05;101484.22;5040361;28;20071;-70
2022/04/29 06:34:09;;;;;;;17.75;11.88;;;;;;;12.00;64.51;101478.81;5039236;28;20136;-68
2022/04/29 06:36:37;;;;;;;18.75;12.85;;;;;;;12.11;65.29;101484.63;5046408;28;21669;-71
2022/04/29 06:39:04;;;;;;;16.63;11.77;;;;;;;12.16;65.21;101482.66;5035931;28;20061;-67
2022/04/29 06:41:30;;;;;;;17.98;11.73;;;;;;;12.22;65.29;101469.16;5043682;28;20048;-69
2022/04/29 06:43:57;;;;;;;18.48;12.07;;;;;;;12.21;64.37;101467.44;5038472;28;20456;-68
2022/04/29 06:46:25;;;;;;;23.45;12.68;;;;;;;12.36;63.44;101487.25;5038515;28;20493;-69
2022/04/29 06:48:55;;;;;;;21.23;13.10;;;;;;;12.25;63.51;101474.38;5038013;28;20049;-71
2022/04/29 06:51:22;;;;;;;17.40;12.52;;;;;;;12.36;63.81;101494.34;5044196;28;20134;-69
2022/04/29 06:53:49;;;;;;;18.40;12.25;;;;;;;12.27;63.19;101483.16;5047210;28;20139;-70
2022/04/29 06:56:16;;;;;;;21.25;12.00;;;;;;;12.26;63.11;101480.56;5036416;28;20156;-69
2022/04/29 06:58:42;;;;;;;17.85;11.77;;;;;;;12.34;63.21;101497.06;5043280;28;20083;-69
2022/04/29 07:01:14;;;;;;;19.77;13.00;;;;;;;12.41;63.51;101492.41;5041355;28;20057;-68
2022/04/29 07:03:43;;;;;;;19.33;12.27;;;;;;;12.46;63.67;101487.75;5045205;28;20142;-70
2022/04/29 07:06:11;;;;;;;16.75;11.85;;;;;;;12.51;62.99;101481.34;5037967;28;20052;-75
2022/04/29 07:08:38;;;;;;;19.15;12.80;;;;;;;12.61;63.13;101492.50;5033849;28;20061;-69
2022/04/29 07:11:04;;;;;;;18.08;11.55;;;;;;;12.61;62.87;101471.22;5039885;28;20061;-69
2022/04/29 07:13:32;;;;;;;22.48;13.02;;;;;;;12.66;62.54;101490.53;5014190;28;20115;-70
2022/04/29 07:15:59;;;;;;;20.17;12.65;;;;;;;12.65;62.53;101488.81;5023890;28;20124;-69
2022/04/29 07:18:26;;;;;;;20.20;12.32;;;;;;;12.70;62.75;101491.28;5039516;28;20430;-69
2022/04/29 07:20:52;;;;;;;19.83;12.63;;;;;;;12.70;62.33;101475.34;5046940;28;20049;-69
2022/04/29 07:23:19;;;;;;;23.08;12.43;;;;;;;12.80;62.66;101482.03;5030119;28;20046;-69
2022/04/29 07:25:48;;;;;;;16.45;12.77;;;;;;;12.89;62.44;101477.25;5032093;28;20061;-70
2022/04/29 07:28:15;;;;;;;20.67;13.27;;;;;;;13.13;61.86;101490.47;5035637;28;20143;-68
2022/04/29 07:30:42;;;;;;;18.75;12.65;;;;;;;13.26;62.25;101481.97;5043624;28;20052;-71
2022/04/29 07:33:09;;;;;;;18.38;12.68;;;;;;;13.39;59.70;101477.00;5040191;28;20053;-70
2022/04/29 07:43:52;;;;;;;17.83;12.30;;;;;;;14.32;56.53;101478.31;5040713;28;20052;-67
2022/04/29 07:46:21;;;;;;;16.48;12.18;;;;;;;14.55;55.34;101479.94;5038810;28;20116;-68
2022/04/29 07:48:48;;;;;;;15.20;11.77;;;;;;;14.51;55.62;101475.66;5042422;28;20270;-69
2022/04/29 07:51:15;;;;;;;21.50;12.55;;;;;;;14.59;55.21;101457.53;5041465;28;20057;-69
2022/04/29 07:53:42;;;;;;;17.73;12.52;;;;;;;14.82;55.39;101470.63;5037409;28;20040;-69
2022/04/29 07:56:09;;;;;;;19.65;11.77;;;;;;;15.14;54.85;101470.88;5042455;28;20072;-69
2022/04/29 07:58:36;;;;;;;19.90;11.98;;;;;;;15.59;53.33;101476.63;5041940;28;20048;-69
2022/04/29 08:01:09;;;;;;;18.70;11.00;;;;;;;15.87;51.96;101472.56;5025495;28;20076;-67
2022/04/29 08:03:37;;;;;;;18.58;11.98;;;;;;;15.98;51.29;101480.88;5041500;28;20060;-77
2022/04/29 08:06:05;;;;;;;15.85;11.18;;;;;;;15.97;51.07;101476.47;5050563;28;20107;-75
2022/04/29 08:08:33;;;;;;;21.75;13.07;;;;;;;16.00;51.52;101489.69;5020111;28;20504;-69
2022/04/29 08:11:00;;;;;;;17.38;11.52;;;;;;;15.99;52.20;101482.63;5040617;28;20381;-67
2022/04/29 08:13:28;;;;;;;14.93;10.93;;;;;;;15.97;52.42;101479.16;5039444;28;20049;-68
2022/04/29 08:15:54;;;;;;;14.70;10.70;;;;;;;16.08;51.46;101482.97;5039017;28;20045;-70
2022/04/29 08:18:21;;;;;;;13.73;11.05;;;;;;;15.99;50.24;101480.81;5035971;28;20072;-68
2022/04/29 08:20:48;;;;;;;14.82;10.77;;;;;;;15.82;50.54;101474.59;5043478;28;20048;-68
2022/04/29 08:23:15;;;;;;;14.48;11.10;;;;;;;15.77;51.38;101473.03;5041601;28;20433;-72
2022/04/29 08:25:41;;;;;;;16.77;10.98;;;;;;;15.99;51.50;101470.13;5042348;28;20052;-67
2022/04/29 08:28:08;;;;;;;15.98;11.25;;;;;;;16.29;50.79;101470.31;5045109;28;20115;-69
2022/04/29 08:30:35;;;;;;;13.77;10.80;;;;;;;16.46;49.80;101451.53;5038932;28;20573;-72
2022/04/29 08:33:01;;;;;;;18.42;11.73;;;;;;;16.60;50.09;101453.44;5043827;28;20504;-70
2022/04/29 08:35:30;;;;;;;16.83;11.70;;;;;;;16.62;50.27;101472.97;5040006;28;20076;-68
2022/04/29 08:37:57;;;;;;;13.48;10.70;;;;;;;16.79;50.52;101470.25;5041487;28;20052;-71
2022/04/29 08:40:25;;;;;;;14.70;11.10;;;;;;;16.81;49.69;101451.44;5041971;28;20423;-70
2022/04/29 08:42:53;;;;;;;14.75;10.27;;;;;;;16.90;49.14;101458.06;5040645;28;20084;-69
2022/04/29 08:45:20;;;;;;;13.65;10.45;;;;;;;17.13;49.34;101463.84;5037697;28;20103;-67
2022/04/29 08:47:47;;;;;;;13.43;10.55;;;;;;;17.36;49.55;101462.50;5042431;28;20053;-70
2022/04/29 08:50:19;;;;;;;12.98;9.95;;;;;;;17.63;46.76;101461.88;5040583;28;20048;-71
2022/04/29 08:52:48;;;;;;;12.98;10.52;;;;;;;17.89;45.99;101453.16;5021999;28;20121;-71
2022/04/29 09:00:47;;;;;;;11.93;9.73;;;;;;;17.80;46.78;101451.88;5040701;28;20057;-70
2022/04/29 09:03:24;;;;;;;12.20;10.68;;;;;;;17.76;46.42;101458.38;5042960;28;20040;-69
2022/04/29 09:05:51;;;;;;;12.23;10.15;;;;;;;17.76;46.02;101447.66;5041221;28;20175;-69
2022/04/29 09:08:20;;;;;;;14.60;10.43;;;;;;;17.86;45.36;101448.84;5047145;28;20113;-69
2022/04/29 09:10:51;;;;;;;12.80;10.40;;;;;;;17.81;45.31;101450.91;5044988;28;20497;-69
2022/04/29 09:13:34;;;;;;;13.77;10.30;;;;;;;17.67;46.57;101441.97;5046330;28;20049;-71
2022/04/29 09:16:06;;;;;;;10.27;9.27;;;;;;;17.79;45.45;101452.81;5050977;28;20110;-70
2022/04/29 09:18:37;;;;;;;10.43;9.10;;;;;;;17.95;45.19;101457.25;5042572;28;20073;-68
2022/04/29 09:21:07;;;;;;;13.85;9.50;;;;;;;18.10;44.39;101443.78;5043961;28;20467;-69
2022/04/29 09:23:39;;;;;;;13.68;9.73;;;;;;;18.09;43.98;101428.69;5037082;28;20049;-71
2022/04/29 09:26:07;;;;;;;12.82;8.88;;;;;;;17.92;44.72;101425.31;5038511;28;20392;-69
2022/04/29 09:28:35;;;;;;;11.18;9.57;;;;;;;18.04;44.89;101414.69;5041978;28;20037;-69
2022/04/29 09:31:02;;;;;;;14.45;9.00;;;;;;;18.51;44.08;101432.28;5036593;28;20417;-77
2022/04/29 09:33:32;;;;;;;15.20;9.75;;;;;;;18.76;43.55;101434.28;5044373;28;20125;-71
2022/04/29 09:35:59;;;;;;;10.52;8.68;;;;;;;18.66;43.72;101427.81;5042822;28;20144;-68
2022/04/29 09:41:21;;;;;;;11.15;9.13;;;;;;;18.83;43.08;101414.16;5044881;28;20156;-75
2022/04/29 09:43:48;;;;;;;11.15;8.93;;;;;;;18.91;42.69;101418.03;5044766;28;20127;-69
2022/04/29 09:46:20;;;;;;;11.82;8.23;;;;;;;18.83;42.54;101411.47;5040020;28;20509;-69
2022/04/29 09:49:06;;;;;;;13.80;9.18;;;;;;;19.11;41.78;101416.75;5040586;28;20065;-71
2022/04/29 09:51:45;;;;;;;13.13;9.40;;;;;;;19.11;42.90;101411.38;5047772;28;20041;-71
2022/04/29 09:54:26;;;;;;;12.40;9.05;;;;;;;19.03;42.54;101416.41;5043381;28;20130;-73
2022/04/29 09:57:07;;;;;;;12.57;8.85;;;;;;;18.83;43.00;101423.06;5047261;28;20059;-76
2022/04/29 09:59:40;;;;;;;12.07;7.95;;;;;;;18.81;43.69;101414.25;5042809;28;20053;-71
2022/04/29 10:02:08;;;;;;;12.48;7.97;;;;;;;19.02;42.32;101392.34;5045343;28;20327;-76
2022/04/29 10:04:40;;;;;;;13.68;8.52;;;;;;;19.30;41.02;101397.56;5048762;28;20071;-72
2022/04/29 10:07:10;;;;;;;11.32;7.82;;;;;;;19.49;41.31;101386.44;5045763;28;20448;-77
2022/04/29 10:09:40;;;;;;;9.68;8.10;;;;;;;19.92;40.07;101401.34;5042921;28;20486;-72
2022/04/29 10:12:16;;;;;;;8.93;7.45;;;;;;;20.20;39.14;101394.88;5040900;28;20061;-74
2022/04/29 10:14:45;;;;;;;11.23;8.10;;;;;;;20.46;38.27;101394.88;5041913;28;20053;-76
2022/04/29 10:23:13;;;;;;;11.48;7.88;;;;;;;20.71;36.55;101400.19;5047418;28;20053;-75
2022/04/29 10:25:43;;;;;;;9.45;6.85;;;;;;;20.70;35.56;101390.38;5043142;28;20047;-68
2022/04/29 10:28:15;;;;;;;7.88;5.97;;;;;;;20.86;35.53;101392.81;5041890;28;20055;-70
2022/04/29 10:30:43;;;;;;;8.15;6.80;;;;;;;21.08;35.38;101384.84;5040722;28;20128;-73
2022/04/29 10:33:24;;;;;;;9.05;6.60;;;;;;;21.21;35.30;101385.69;5045688;28;20139;-71
2022/04/29 10:35:54;;;;;;;11.00;6.32;;;;;;;21.27;36.25;101370.84;5040573;28;20127;-71
2022/04/29 10:38:35;;;;;;;8.45;6.10;;;;;;;21.34;37.30;101383.75;5043776;28;20358;-67
2022/04/29 10:41:18;;;;;;;10.60;6.55;;;;;;;21.55;35.55;101380.41;5047082;28;20467;-69
2022/04/29 10:43:51;;;;;;;10.15;6.65;;;;;;;21.47;35.71;101372.91;5042498;28;20474;-69
2022/04/29 10:46:29;;;;;;;9.18;6.97;;;;;;;21.33;36.15;101376.66;5044574;28;20575;-74
2022/04/29 10:48:56;;;;;;;9.27;7.57;;;;;;;21.15;34.56;101372.63;5042753;28;20053;-67
2022/04/29 10:51:29;;;;;;;9.38;7.72;;;;;;;20.94;34.72;101369.72;5041186;28;20061;-68
2022/04/29 10:53:57;;;;;;;11.43;6.78;;;;;;;20.62;35.25;101339.78;5021640;28;20600;-68
2022/04/29 10:56:30;;;;;;;9.35;6.13;;;;;;;20.91;35.63;101369.09;5040397;28;20045;-70
2022/04/29 10:59:09;;;;;;;10.95;6.60;;;;;;;21.04;36.06;101369.91;5043801;28;20494;-68
2022/04/29 11:01:37;;;;;;;7.80;6.80;;;;;;;21.16;34.58;101350.09;5048472;28;20076;-71
2022/04/29 11:04:06;;;;;;;8.48;6.65;;;;;;;21.31;34.32;101359.75;5041557;28;20056;-68
2022/04/29 11:06:36;;;;;;;9.32;6.47;;;;;;;21.48;34.38;101350.34;5045137;28;20053;-69
2022/04/29 11:09:26;;;;;;;9.13;6.90;;;;;;;21.50;33.81;101358.34;5041522;28;20418;-68
2022/04/29 11:11:57;;;;;;;10.30;6.90;;;;;;;21.40;33.88;101350.09;5034227;28;20547;-67
2022/04/29 11:14:24;;;;;;;7.28;6.22;;;;;;;21.16;34.53;101355.50;5042956;28;20393;-68
2022/04/29 11:16:55;;;;;;;10.73;6.20;;;;;;;20.99;35.14;101346.00;5030036;28;20124;-69
2022/04/29 11:19:26;;;;;;;9.25;7.05;;;;;;;20.66;35.67;101341.28;5034767;28;20045;-70
2022/04/29 11:24:49;;;;;;;11.57;7.10;;;;;;;20.76;35.28;101338.81;5043877;28;19968;-69
2022/04/29 11:27:26;;;;;;;12.32;7.10;;;;;;;20.69;36.01;101313.31;5037216;28;20162;-68
2022/04/29 11:29:54;;;;;;;9.02;7.05;;;;;;;20.81;36.99;101333.06;5045081;28;20044;-68
2022/04/29 11:32:24;;;;;;;9.88;5.70;;;;;;;20.91;36.89;101331.41;5044950;28;20132;-72
2022/04/29 11:34:56;;;;;;;7.30;6.43;;;;;;;20.95;36.63;101324.78;5048454;28;20064;-70
2022/04/29 11:37:23;;;;;;;8.93;7.03;;;;;;;20.80;36.95;101334.03;5044412;28;20053;-71
2022/04/29 11:39:57;;;;;;;9.98;7.15;;;;;;;20.38;37.04;101303.09;5047739;28;20045;-69
2022/04/29 11:42:24;;;;;;;12.93;7.30;;;;;;;20.20;37.15;101318.72;5021315;28;20911;-69
2022/04/29 11:44:50;;;;;;;11.02;6.43;;;;;;;20.00;38.22;101313.91;5036782;28;20740;-69
2022/04/29 11:47:23;;;;;;;8.55;6.38;;;;;;;19.94;37.69;101291.03;5040616;28;20562;-72
2022/04/29 11:49:52;;;;;;;9.07;6.80;;;;;;;20.13;36.82;101306.69;5046485;28;20175;-69